createdAt,value
2018-07-25T00:01:48.810Z,10.63
2018-07-25T00:04:16.502Z,11.53
2018-07-25T00:06:44.208Z,10.93
2018-07-25T00:09:11.932Z,11.93
2018-07-25T00:11:39.716Z,10.50
2018-07-25T00:14:07.576Z,12.80
2018-07-25T00:16:35.806Z,10.40
2018-07-25T00:19:03.601Z,11.90
2018-07-25T00:21:31.350Z,11.93
2018-07-25T00:23:59.136Z,10.50
2018-07-25T00:26:26.943Z,11.03
2018-07-25T00:28:54.633Z,11.57
2018-07-25T00:31:22.364Z,10.50
2018-07-25T00:33:50.032Z,11.03
2018-07-25T00:36:17.745Z,11.13
2018-07-25T00:38:45.430Z,9.67
2018-07-25T00:41:13.113Z,10.53
2018-07-25T00:43:40.802Z,10.23
2018-07-25T00:46:08.693Z,11.90
2018-07-25T00:48:36.438Z,10.30
2018-07-25T00:51:04.138Z,14.30
2018-07-25T00:53:31.818Z,12.70
2018-07-25T00:55:59.505Z,11.63
2018-07-25T00:58:27.188Z,12.13
2018-07-25T01:00:54.894Z,13.20
2018-07-25T01:03:22.561Z,15.27
2018-07-25T01:05:50.231Z,15.70
2018-07-25T01:08:17.930Z,16.10
2018-07-25T01:10:45.645Z,14.17
2018-07-25T01:13:13.344Z,15.60
2018-07-25T01:15:41.465Z,14.07
2018-07-25T01:18:09.186Z,14.80
2018-07-25T01:20:36.860Z,15.47
2018-07-25T01:23:04.543Z,14.90
2018-07-25T01:25:32.234Z,16.43
2018-07-25T01:27:59.915Z,13.97
2018-07-25T01:30:27.673Z,14.03
2018-07-25T01:32:55.344Z,15.00
2018-07-25T01:35:23.031Z,14.57
2018-07-25T01:37:50.726Z,16.00
2018-07-25T01:40:18.400Z,19.30
2018-07-25T01:42:46.097Z,15.23
2018-07-25T01:45:13.815Z,14.83
2018-07-25T01:47:41.493Z,17.00
2018-07-25T01:50:09.215Z,16.17
2018-07-25T01:52:37.076Z,18.17
2018-07-25T01:55:06.085Z,21.50
2018-07-25T01:57:33.820Z,18.17
2018-07-25T02:00:01.529Z,19.30
2018-07-25T02:02:29.201Z,19.30
2018-07-25T02:04:56.873Z,20.73
2018-07-25T02:07:24.606Z,16.80
2018-07-25T02:09:52.560Z,16.77
2018-07-25T02:12:20.265Z,15.40
2018-07-25T02:14:47.982Z,15.93
2018-07-25T02:17:15.744Z,15.50
2018-07-25T02:19:43.438Z,18.57
2018-07-25T02:22:11.120Z,25.73
2018-07-25T02:24:38.800Z,23.70
2018-07-25T02:27:06.627Z,23.87
2018-07-25T02:29:34.332Z,23.30
2018-07-25T02:32:02.414Z,25.53
2018-07-25T02:34:30.080Z,24.70
2018-07-25T02:36:57.771Z,28.20
2018-07-25T02:39:25.468Z,25.43
2018-07-25T02:41:53.141Z,21.13
2018-07-25T02:44:20.904Z,22.73
2018-07-25T02:46:48.601Z,21.67
2018-07-25T02:49:16.292Z,18.27
2018-07-25T02:51:44.009Z,19.43
2018-07-25T02:54:11.700Z,21.73
2018-07-25T02:56:39.421Z,19.00
2018-07-25T02:59:07.125Z,18.87
2018-07-25T03:01:34.814Z,19.83
2018-07-25T03:04:02.545Z,22.37
2018-07-25T03:06:30.302Z,21.20
2018-07-25T03:08:58.049Z,19.73
2018-07-25T03:11:25.866Z,19.27
2018-07-25T03:13:53.556Z,18.70
2018-07-25T03:16:21.316Z,18.03
2018-07-25T03:18:49.013Z,18.37
2018-07-25T03:21:16.726Z,15.70
2018-07-25T03:23:44.414Z,16.60
2018-07-25T03:26:12.133Z,16.90
2018-07-25T03:28:39.799Z,22.53
2018-07-25T03:31:07.512Z,19.33
2018-07-25T03:33:35.218Z,18.47
2018-07-25T03:36:02.968Z,18.10
2018-07-25T03:38:30.712Z,15.77
2018-07-25T03:40:58.472Z,15.77
2018-07-25T03:43:26.206Z,17.10
2018-07-25T03:45:53.984Z,16.87
2018-07-25T03:48:21.681Z,16.30
2018-07-25T03:50:49.361Z,14.40
2018-07-25T03:53:17.097Z,15.23
2018-07-25T03:55:44.786Z,15.60
2018-07-25T03:58:12.478Z,17.33
2018-07-25T04:00:40.169Z,15.97
2018-07-25T04:03:07.941Z,15.50
2018-07-25T04:05:35.656Z,16.03
2018-07-25T04:08:03.434Z,14.73
2018-07-25T04:10:31.191Z,15.67
2018-07-25T04:12:58.902Z,16.03
2018-07-25T04:15:26.721Z,14.33
2018-07-25T04:17:54.593Z,16.07
2018-07-25T04:20:22.317Z,16.27
2018-07-25T04:22:50.061Z,19.00
2018-07-25T04:25:17.750Z,16.43
2018-07-25T04:27:46.250Z,16.53
2018-07-25T04:30:15.978Z,18.23
2018-07-25T04:32:44.258Z,19.20
2018-07-25T04:35:13.038Z,18.20
2018-07-25T04:37:41.186Z,17.03
2018-07-25T04:40:08.990Z,17.63
2018-07-25T04:42:36.902Z,15.80
2018-07-25T04:45:05.505Z,18.00
2018-07-25T04:47:33.222Z,15.33
2018-07-25T04:50:00.997Z,16.53
2018-07-25T04:52:28.737Z,15.73
2018-07-25T04:54:56.476Z,16.93
2018-07-25T04:57:24.206Z,16.60
2018-07-25T04:59:51.967Z,17.37
2018-07-25T05:02:19.685Z,16.53
2018-07-25T05:04:47.387Z,15.67
2018-07-25T05:07:15.098Z,17.23
2018-07-25T05:09:42.983Z,15.13
2018-07-25T05:12:10.731Z,16.97
2018-07-25T05:14:38.448Z,20.27
2018-07-25T05:17:06.226Z,21.73
2018-07-25T05:19:33.933Z,22.80
2018-07-25T05:22:01.639Z,27.10
2018-07-25T05:24:29.361Z,30.43
2018-07-25T05:26:57.072Z,34.00
2018-07-25T05:29:24.976Z,33.33
2018-07-25T05:31:52.689Z,35.17
2018-07-25T05:34:20.447Z,29.70
2018-07-25T05:36:48.162Z,30.37
2018-07-25T05:39:15.872Z,30.67
2018-07-25T05:41:43.544Z,30.60
2018-07-25T05:44:11.243Z,29.60
2018-07-25T05:46:39.235Z,33.97
2018-07-25T05:49:06.996Z,32.07
2018-07-25T05:51:35.783Z,33.67
2018-07-25T05:54:03.647Z,32.77
2018-07-25T05:56:31.527Z,32.93
2018-07-25T05:58:59.765Z,31.37
2018-07-25T06:01:27.659Z,26.90
2018-07-25T06:03:55.449Z,29.83
2018-07-25T06:06:23.285Z,30.40
2018-07-25T06:08:51.180Z,28.73
2018-07-25T06:11:18.945Z,29.93
2018-07-25T06:13:46.644Z,28.80
2018-07-25T06:16:14.350Z,26.33
2018-07-25T06:18:42.172Z,27.73
2018-07-25T06:21:09.934Z,26.17
2018-07-25T06:23:37.736Z,29.67
2018-07-25T06:26:05.664Z,32.47
2018-07-25T06:28:33.367Z,25.50
2018-07-25T06:31:01.131Z,28.17
2018-07-25T06:33:28.843Z,31.17
2018-07-25T06:35:56.528Z,24.23
2018-07-25T06:38:24.232Z,22.80
2018-07-25T06:40:51.926Z,30.20
2018-07-25T06:43:19.676Z,27.93
2018-07-25T06:45:47.357Z,25.13
2018-07-25T06:48:15.359Z,24.70
2018-07-25T06:50:43.115Z,27.13
2018-07-25T06:53:10.816Z,28.63
2018-07-25T06:55:38.517Z,24.40
2018-07-25T06:58:06.224Z,24.33
2018-07-25T07:00:33.921Z,26.07
2018-07-25T07:03:01.616Z,27.87
2018-07-25T07:05:29.365Z,24.73
2018-07-25T07:07:57.061Z,24.23
2018-07-25T07:10:24.782Z,22.17
2018-07-25T07:12:52.534Z,23.90
2018-07-25T07:15:20.279Z,23.33
2018-07-25T07:17:48.078Z,23.57
2018-07-25T07:20:15.811Z,23.70
2018-07-25T07:22:43.547Z,22.77
2018-07-25T07:25:11.291Z,21.27
2018-07-25T07:27:39.044Z,22.30
2018-07-25T07:30:07.142Z,23.90
2018-07-25T07:32:35.017Z,22.23
2018-07-25T07:35:02.967Z,20.60
2018-07-25T07:37:30.998Z,20.73
2018-07-25T07:39:58.660Z,20.80
2018-07-25T07:42:26.369Z,19.13
2018-07-25T07:44:54.165Z,18.40
2018-07-25T07:47:22.042Z,17.47
2018-07-25T07:49:49.728Z,17.87
2018-07-25T07:52:17.522Z,17.03
2018-07-25T07:54:45.426Z,17.43
2018-07-25T07:57:13.144Z,16.87
2018-07-25T07:59:40.872Z,15.83
2018-07-25T08:02:08.655Z,16.47
2018-07-25T08:04:36.439Z,15.83
2018-07-25T08:07:04.187Z,14.97
2018-07-25T08:09:31.903Z,14.90
2018-07-25T08:11:59.634Z,16.13
2018-07-25T08:14:27.365Z,14.77
2018-07-25T08:16:55.059Z,14.57
2018-07-25T08:19:22.774Z,14.73
2018-07-25T08:21:50.492Z,16.17
2018-07-25T08:24:18.196Z,15.03
2018-07-25T08:26:45.938Z,15.93
2018-07-25T08:29:13.676Z,13.60
2018-07-25T08:31:41.343Z,12.93
2018-07-25T08:34:09.048Z,12.97
2018-07-25T08:36:36.739Z,12.80
2018-07-25T08:39:07.521Z,11.80
2018-07-25T08:41:35.302Z,11.20
2018-07-25T08:44:03.694Z,11.17
2018-07-25T08:46:31.402Z,9.53
2018-07-25T08:48:59.162Z,9.97
2018-07-25T08:51:26.867Z,12.77
2018-07-25T08:53:54.579Z,12.10
2018-07-25T08:56:22.299Z,9.63
2018-07-25T08:58:50.022Z,9.37
2018-07-25T09:01:17.778Z,13.37
2018-07-25T09:03:45.505Z,12.27
2018-07-25T09:06:13.429Z,10.43
2018-07-25T09:08:41.151Z,8.23
2018-07-25T09:11:08.863Z,9.80
2018-07-25T09:13:36.658Z,8.27
2018-07-25T09:16:04.437Z,7.77
2018-07-25T09:18:32.240Z,7.03
2018-07-25T09:21:00.035Z,7.17
2018-07-25T09:23:27.769Z,7.20
2018-07-25T09:25:55.495Z,6.50
2018-07-25T09:28:23.202Z,6.00
2018-07-25T09:30:50.998Z,6.03
2018-07-25T09:33:18.772Z,6.43
2018-07-25T09:35:46.718Z,5.90
2018-07-25T09:38:14.470Z,6.03
2018-07-25T09:40:42.226Z,7.10
2018-07-25T09:43:10.020Z,6.80
2018-07-25T09:45:37.842Z,5.43
2018-07-25T09:48:05.614Z,6.30
2018-07-25T09:50:33.366Z,7.43
2018-07-25T09:53:01.186Z,5.07
2018-07-25T09:55:28.940Z,6.83
2018-07-25T09:57:56.702Z,6.87
2018-07-25T10:00:29.924Z,8.30
2018-07-25T10:02:57.665Z,6.20
2018-07-25T10:05:25.448Z,5.17
2018-07-25T10:07:53.256Z,5.03
2018-07-25T10:10:21.016Z,4.63
2018-07-25T10:12:48.762Z,4.57
2018-07-25T10:15:16.613Z,4.37
2018-07-25T10:17:44.306Z,4.43
2018-07-25T10:20:12.146Z,4.63
2018-07-25T10:22:39.944Z,6.10
2018-07-25T10:25:07.727Z,5.83
2018-07-25T10:27:35.522Z,5.00
2018-07-25T10:30:03.425Z,6.40
2018-07-25T10:32:31.218Z,4.50
2018-07-25T10:34:58.974Z,5.33
2018-07-25T10:37:26.744Z,4.40
2018-07-25T10:39:54.558Z,5.50
2018-07-25T10:42:22.320Z,6.07
2018-07-25T10:44:50.046Z,6.40
2018-07-25T10:47:17.822Z,4.53
2018-07-25T10:49:45.604Z,5.17
2018-07-25T10:52:13.449Z,4.40
2018-07-25T10:54:41.190Z,6.43
2018-07-25T10:57:08.970Z,5.57
2018-07-25T10:59:36.741Z,4.77
2018-07-25T11:02:04.551Z,4.20
2018-07-25T11:04:32.341Z,4.20
2018-07-25T11:07:00.130Z,4.47
2018-07-25T11:09:27.857Z,4.10
2018-07-25T11:11:55.605Z,4.10
2018-07-25T11:14:23.375Z,4.50
2018-07-25T11:16:51.155Z,4.13
2018-07-25T11:19:18.928Z,6.07
2018-07-25T11:21:46.727Z,3.93
2018-07-25T11:24:14.482Z,5.83
2018-07-25T11:26:42.428Z,4.00
2018-07-25T11:29:10.223Z,4.53
2018-07-25T11:31:37.972Z,5.30
2018-07-25T11:34:05.746Z,3.93
2018-07-25T11:36:33.505Z,3.77
2018-07-25T11:39:01.344Z,4.10
2018-07-25T11:41:29.081Z,3.73
2018-07-25T11:43:56.883Z,4.27
2018-07-25T11:46:24.602Z,3.73
2018-07-25T11:48:52.341Z,4.47
2018-07-25T11:51:20.099Z,3.40
2018-07-25T11:53:47.875Z,5.23
2018-07-25T11:56:15.654Z,4.00
2018-07-25T11:58:43.330Z,4.13
2018-07-25T12:01:11.115Z,5.80
2018-07-25T12:03:38.794Z,4.23
2018-07-25T12:06:06.662Z,3.73
2018-07-25T12:08:34.414Z,6.20
2018-07-25T12:11:02.217Z,3.40
2018-07-25T12:13:30.021Z,4.13
2018-07-25T12:15:57.849Z,4.17
2018-07-25T12:18:25.574Z,5.10
2018-07-25T12:20:53.334Z,3.77
2018-07-25T12:23:24.044Z,3.37
2018-07-25T12:25:51.798Z,3.70
2018-07-25T12:28:20.196Z,3.60
2018-07-25T12:30:47.993Z,3.20
2018-07-25T12:33:16.122Z,3.67
2018-07-25T12:35:43.874Z,3.20
2018-07-25T12:38:11.628Z,3.73
2018-07-25T12:40:39.393Z,4.17
2018-07-25T12:43:07.199Z,4.17
2018-07-25T12:45:35.162Z,3.77
2018-07-25T12:48:02.973Z,4.50
2018-07-25T12:50:30.942Z,6.63
2018-07-25T12:52:58.826Z,3.43
2018-07-25T12:55:26.946Z,4.10
2018-07-25T12:57:54.835Z,3.13
2018-07-25T13:00:22.711Z,3.47
2018-07-25T13:02:50.579Z,4.37
2018-07-25T13:05:18.511Z,3.70
2018-07-25T13:07:46.567Z,4.70
2018-07-25T13:10:14.375Z,3.53
2018-07-25T13:12:42.524Z,4.23
2018-07-25T13:15:10.608Z,3.53
2018-07-25T13:17:38.468Z,5.80
2018-07-25T13:20:06.502Z,3.30
2018-07-25T13:22:34.367Z,3.87
2018-07-25T13:25:02.116Z,5.50
2018-07-25T13:27:29.962Z,4.80
2018-07-25T13:29:57.977Z,4.40
2018-07-25T13:32:25.787Z,4.13
2018-07-25T13:34:53.577Z,4.07
2018-07-25T13:37:21.425Z,5.17
2018-07-25T13:39:49.272Z,3.30
2018-07-25T13:42:17.238Z,6.53
2018-07-25T13:44:45.392Z,3.50
2018-07-25T13:47:13.201Z,4.37
2018-07-25T13:49:41.604Z,6.70
2018-07-25T13:52:09.558Z,3.80
2018-07-25T13:54:37.436Z,3.40
2018-07-25T13:57:05.359Z,3.83
2018-07-25T13:59:33.526Z,2.90
2018-07-25T14:02:01.346Z,5.10
2018-07-25T14:04:29.224Z,4.33
2018-07-25T14:06:57.059Z,8.50
2018-07-25T14:09:24.984Z,3.43
2018-07-25T14:11:53.916Z,4.10
2018-07-25T14:14:21.837Z,3.67
2018-07-25T14:16:49.698Z,7.33
2018-07-25T14:19:18.110Z,8.20
2018-07-25T14:21:46.227Z,3.67
2018-07-25T14:24:14.061Z,3.50
2018-07-25T14:26:41.947Z,4.30
2018-07-25T14:29:10.301Z,3.90
2018-07-25T14:31:38.392Z,4.03
2018-07-25T14:34:06.235Z,3.27
2018-07-25T14:36:34.314Z,3.37
2018-07-25T14:39:02.203Z,4.40
2018-07-25T14:41:30.271Z,4.40
2018-07-25T14:43:58.173Z,2.93
2018-07-25T14:46:25.971Z,5.97
2018-07-25T14:48:53.765Z,4.73
2018-07-25T14:51:21.757Z,3.40
2018-07-25T14:53:49.519Z,5.37
2018-07-25T14:56:17.665Z,7.17
2018-07-25T14:58:45.514Z,7.07
2018-07-25T15:01:13.375Z,7.37
2018-07-25T15:03:41.174Z,6.13
2018-07-25T15:06:08.998Z,6.33
2018-07-25T15:08:37.094Z,5.03
2018-07-25T15:11:04.907Z,4.17
2018-07-25T15:13:33.071Z,7.27
2018-07-25T15:16:01.012Z,4.13
2018-07-25T15:18:28.870Z,4.37
2018-07-25T15:20:56.649Z,6.33
2018-07-25T15:23:35.591Z,8.90
2018-07-25T15:26:03.723Z,6.07
2018-07-25T15:28:31.725Z,5.17
2018-07-25T15:30:59.654Z,5.87
2018-07-25T15:33:27.703Z,6.70
2018-07-25T15:35:55.545Z,4.97
2018-07-25T15:38:23.355Z,7.70
2018-07-25T15:40:51.199Z,5.77
2018-07-25T15:43:18.957Z,4.87
2018-07-25T15:45:47.001Z,5.33
2018-07-25T15:48:14.794Z,5.20
2018-07-25T15:50:42.519Z,6.67
2018-07-25T15:53:10.328Z,3.90
2018-07-25T15:55:38.147Z,5.83
2018-07-25T15:58:06.078Z,5.17
2018-07-25T16:00:33.949Z,5.33
2018-07-25T16:03:02.082Z,5.27
2018-07-25T16:05:29.870Z,7.77
2018-07-25T16:07:57.629Z,5.60
2018-07-25T16:10:25.565Z,4.53
2018-07-25T16:12:53.479Z,5.43
2018-07-25T16:15:21.369Z,7.30
2018-07-25T16:17:49.157Z,7.93
2018-07-25T16:20:17.184Z,5.47
2018-07-25T16:22:45.105Z,4.30
2018-07-25T16:25:12.894Z,6.30
2018-07-25T16:27:40.682Z,6.17
2018-07-25T16:30:08.564Z,5.37
2018-07-25T16:32:36.387Z,5.20
2018-07-25T16:35:04.693Z,5.67
2018-07-25T16:37:32.489Z,5.37
2018-07-25T16:40:00.262Z,4.50
2018-07-25T16:42:28.080Z,5.67
2018-07-25T16:44:55.875Z,3.90
2018-07-25T16:47:23.869Z,3.97
2018-07-25T16:49:51.917Z,5.60
2018-07-25T16:52:19.888Z,4.60
2018-07-25T16:54:48.163Z,4.70
2018-07-25T16:57:16.299Z,4.73
2018-07-25T16:59:44.101Z,5.43
2018-07-25T17:02:12.268Z,6.33
2018-07-25T17:04:40.271Z,4.73
2018-07-25T17:07:08.184Z,5.40
2018-07-25T17:09:36.015Z,4.40
2018-07-25T17:12:03.872Z,4.50
2018-07-25T17:14:31.697Z,4.63
2018-07-25T17:16:59.506Z,4.10
2018-07-25T17:19:27.714Z,4.70
2018-07-25T17:21:55.539Z,4.43
2018-07-25T17:24:23.344Z,4.37
2018-07-25T17:26:51.138Z,8.13
2018-07-25T17:29:18.952Z,5.80
2018-07-25T17:31:46.750Z,5.67
2018-07-25T17:34:14.534Z,4.70
2018-07-25T17:36:42.357Z,5.10
2018-07-25T17:39:11.137Z,5.13
2018-07-25T17:41:39.567Z,6.17
2018-07-25T17:44:07.350Z,6.40
2018-07-25T17:46:35.244Z,4.47
2018-07-25T17:49:03.039Z,5.80
2018-07-25T17:51:31.074Z,7.03
2018-07-25T17:53:58.849Z,8.83
2018-07-25T17:56:26.668Z,7.73
2018-07-25T17:58:54.621Z,5.73
2018-07-25T18:01:22.389Z,7.33
2018-07-25T18:03:50.415Z,5.93
2018-07-25T18:06:18.197Z,7.37
2018-07-25T18:08:46.413Z,6.53
2018-07-25T18:11:14.289Z,6.17
2018-07-25T18:13:47.547Z,5.47
2018-07-25T18:16:15.295Z,5.63
2018-07-25T18:18:43.014Z,6.23
2018-07-25T18:21:11.412Z,5.93
2018-07-25T18:23:39.769Z,6.43
2018-07-25T18:26:08.306Z,6.30
2018-07-25T18:28:36.157Z,6.10
2018-07-25T18:31:04.130Z,7.47
2018-07-25T18:33:32.397Z,6.17
2018-07-25T18:36:00.755Z,4.73
2018-07-25T18:38:28.620Z,5.97
2018-07-25T18:40:56.541Z,5.17
2018-07-25T18:43:24.633Z,5.73
2018-07-25T18:45:53.007Z,6.57
2018-07-25T18:48:20.825Z,6.73
2018-07-25T18:50:49.010Z,8.17
2018-07-25T18:53:17.152Z,5.43
2018-07-25T18:55:44.950Z,5.77
2018-07-25T18:58:13.011Z,5.57
2018-07-25T19:00:43.837Z,5.93
2018-07-25T19:03:11.682Z,5.83
2018-07-25T19:05:39.483Z,7.33
2018-07-25T19:08:07.207Z,4.93
2018-07-25T19:10:34.935Z,6.83
2018-07-25T19:13:05.511Z,7.20
2018-07-25T19:15:33.373Z,6.53
2018-07-25T19:18:01.683Z,5.40
2018-07-25T19:20:29.456Z,7.13
2018-07-25T19:22:57.239Z,5.73
2018-07-25T19:25:25.000Z,5.53
2018-07-25T19:27:52.818Z,5.20
2018-07-25T19:30:20.591Z,5.87
2018-07-25T19:32:48.725Z,6.03
2018-07-25T19:35:16.497Z,6.70
2018-07-25T19:37:44.253Z,6.80
2018-07-25T19:40:11.978Z,8.17
2018-07-25T19:42:39.693Z,6.60
2018-07-25T19:45:07.428Z,7.43
2018-07-25T19:47:35.178Z,6.83
2018-07-25T19:50:02.954Z,6.27
2018-07-25T19:52:30.649Z,7.00
2018-07-25T19:54:58.360Z,7.13
2018-07-25T19:57:26.082Z,7.57
2018-07-25T19:59:53.777Z,8.43
2018-07-25T20:02:21.482Z,7.63
2018-07-25T20:04:49.250Z,8.13
2018-07-25T20:07:17.955Z,7.13
2018-07-25T20:09:45.706Z,8.67
2018-07-25T20:12:13.456Z,7.53
2018-07-25T20:14:46.613Z,6.60
2018-07-25T20:17:15.109Z,6.73
2018-07-25T20:19:42.814Z,6.17
2018-07-25T20:22:10.602Z,6.40
2018-07-25T20:24:38.308Z,9.10
2018-07-25T20:27:06.137Z,9.67
2018-07-25T20:29:33.946Z,7.10
2018-07-25T20:32:01.729Z,6.37
2018-07-25T20:34:29.472Z,6.60
2018-07-25T20:36:57.251Z,7.77
2018-07-25T20:39:25.021Z,8.20
2018-07-25T20:41:52.805Z,6.33
2018-07-25T20:44:20.906Z,6.27
2018-07-25T20:46:48.717Z,6.20
2018-07-25T20:49:17.930Z,6.50
2018-07-25T20:51:45.709Z,6.80
2018-07-25T20:54:13.511Z,6.83
2018-07-25T20:59:03.357Z,5.90
2018-07-25T21:01:31.037Z,5.77
2018-07-25T21:03:58.710Z,7.90
2018-07-25T21:06:26.374Z,6.53
2018-07-25T21:08:54.084Z,6.47
2018-07-25T21:11:22.060Z,7.13
2018-07-25T21:13:49.770Z,6.90
2018-07-25T21:16:17.581Z,6.00
2018-07-25T21:18:45.265Z,7.43
2018-07-25T21:21:12.991Z,7.57
2018-07-25T21:23:40.655Z,10.53
2018-07-25T21:26:08.317Z,7.53
2018-07-25T21:28:35.982Z,8.87
2018-07-25T21:31:03.836Z,6.77
2018-07-25T21:33:31.520Z,10.67
2018-07-25T21:35:59.294Z,7.00
2018-07-25T21:38:27.026Z,7.77
2018-07-25T21:40:54.692Z,7.00
2018-07-25T21:43:22.344Z,10.17
2018-07-25T21:45:50.109Z,7.70
2018-07-25T21:48:17.929Z,8.57
2018-07-25T21:50:45.589Z,8.27
2018-07-25T21:53:13.450Z,9.30
2018-07-25T21:55:41.109Z,10.90
2018-07-25T21:58:08.784Z,8.70
2018-07-25T22:00:36.606Z,8.40
2018-07-25T22:03:04.271Z,8.30
2018-07-25T22:05:31.945Z,7.77
2018-07-25T22:07:59.629Z,6.60
2018-07-25T22:10:27.345Z,11.60
2018-07-25T22:12:55.501Z,12.37
2018-07-25T22:15:23.352Z,8.57
2018-07-25T22:17:51.043Z,12.27
2018-07-25T22:20:18.725Z,9.80
2018-07-25T22:22:46.396Z,8.77
2018-07-25T22:25:14.053Z,7.83
2018-07-25T22:27:41.768Z,7.20
2018-07-25T22:30:09.459Z,7.37
2018-07-25T22:32:37.137Z,7.97
2018-07-25T22:35:04.826Z,7.30
2018-07-25T22:37:32.496Z,9.57
2018-07-25T22:40:00.144Z,7.27
2018-07-25T22:42:27.821Z,7.30
2018-07-25T22:44:55.498Z,7.23
2018-07-25T22:47:23.163Z,8.67
2018-07-25T22:49:50.894Z,7.03
2018-07-25T22:52:18.599Z,9.83
2018-07-25T22:54:46.461Z,7.73
2018-07-25T22:57:14.113Z,7.87
2018-07-25T22:59:41.835Z,7.90
2018-07-25T23:02:09.505Z,9.13
2018-07-25T23:04:37.169Z,7.63
2018-07-25T23:07:05.316Z,8.03
2018-07-25T23:09:32.973Z,8.23
2018-07-25T23:12:00.659Z,10.93
2018-07-25T23:14:28.338Z,8.63
2018-07-25T23:16:56.017Z,8.80
2018-07-25T23:19:23.693Z,10.03
2018-07-25T23:21:51.396Z,9.40
2018-07-25T23:24:19.088Z,8.30
2018-07-25T23:26:46.752Z,8.37
2018-07-25T23:29:14.435Z,7.50
2018-07-25T23:31:42.078Z,9.10
2018-07-25T23:34:09.733Z,7.80
2018-07-25T23:36:37.459Z,8.47
2018-07-25T23:39:06.922Z,9.43
2018-07-25T23:41:34.605Z,7.40
2018-07-25T23:44:02.325Z,6.00
2018-07-25T23:46:30.009Z,6.80
2018-07-25T23:48:57.689Z,8.70
2018-07-25T23:51:25.421Z,7.60
2018-07-25T23:53:53.081Z,7.07
2018-07-25T23:56:20.797Z,5.80
2018-07-25T23:58:48.477Z,4.90
